createdAt,value
2018-09-29T05:00:46.117Z,1.85
2018-09-29T05:01:18.732Z,1.62
2018-09-29T05:01:51.348Z,1.75
2018-09-29T05:02:23.972Z,1.92
2018-09-29T05:02:56.944Z,2.05
2018-09-29T05:03:29.557Z,2.00
2018-09-29T05:04:02.196Z,1.70
2018-09-29T05:04:34.825Z,1.75
2018-09-29T05:05:07.461Z,1.95
2018-09-29T05:05:40.066Z,1.60
2018-09-29T05:06:12.717Z,1.90
2018-09-29T05:06:45.343Z,2.20
2018-09-29T05:07:17.949Z,2.20
2018-09-29T05:07:50.664Z,1.70
2018-09-29T05:08:23.285Z,2.12
2018-09-29T05:08:55.896Z,1.90
2018-09-29T05:09:28.497Z,1.90
2018-09-29T05:10:01.088Z,2.00
2018-09-29T05:10:33.705Z,2.22
2018-09-29T05:11:06.328Z,2.35
2018-09-29T05:11:38.981Z,1.80
2018-09-29T05:12:11.601Z,2.08
2018-09-29T05:12:44.205Z,1.62
2018-09-29T05:13:16.976Z,1.52
2018-09-29T05:13:49.697Z,1.95
2018-09-29T05:14:22.329Z,2.10
2018-09-29T05:14:54.933Z,2.35
2018-09-29T05:15:27.543Z,2.12
2018-09-29T05:16:00.146Z,1.90
2018-09-29T05:16:32.765Z,1.90
2018-09-29T05:17:05.568Z,1.75
2018-09-29T05:17:38.191Z,2.35
2018-09-29T05:18:10.787Z,2.00
2018-09-29T05:18:43.394Z,2.20
2018-09-29T05:19:16.098Z,2.47
2018-09-29T05:19:48.820Z,1.60
2018-09-29T05:20:21.465Z,2.05
2018-09-29T05:20:54.072Z,1.60
2018-09-29T05:21:26.680Z,2.00
2018-09-29T05:21:59.280Z,2.12
2018-09-29T05:22:31.901Z,2.17
2018-09-29T05:23:04.681Z,2.05
2018-09-29T05:23:37.295Z,1.98
2018-09-29T05:24:09.880Z,2.17
2018-09-29T05:24:42.487Z,2.52
2018-09-29T05:25:15.095Z,1.42
2018-09-29T05:25:47.703Z,1.77
2018-09-29T05:26:20.304Z,2.17
2018-09-29T05:26:52.924Z,2.10
2018-09-29T05:27:25.546Z,2.10
2018-09-29T05:27:58.165Z,2.10
2018-09-29T05:28:30.753Z,2.35
2018-09-29T05:29:03.377Z,1.50
2018-09-29T05:29:36.004Z,2.37
2018-09-29T05:30:09.194Z,2.40
2018-09-29T05:30:41.859Z,1.72
2018-09-29T05:31:14.449Z,2.10
2018-09-29T05:31:47.052Z,1.57
2018-09-29T05:32:19.680Z,2.08
2018-09-29T05:32:52.277Z,2.05
2018-09-29T05:33:24.910Z,2.00
2018-09-29T05:33:57.508Z,2.75
2018-09-29T05:34:30.147Z,3.60
2018-09-29T05:35:02.741Z,3.20
2018-09-29T05:35:35.320Z,4.20
2018-09-29T05:36:07.909Z,5.70
2018-09-29T05:36:40.523Z,6.00
2018-09-29T05:37:13.124Z,5.87
2018-09-29T05:37:45.725Z,6.37
2018-09-29T05:38:18.335Z,7.50
2018-09-29T05:38:50.988Z,7.17
2018-09-29T05:39:23.579Z,8.28
2018-09-29T05:39:56.172Z,9.63
2018-09-29T05:40:28.797Z,8.38
2018-09-29T05:41:01.436Z,8.53
2018-09-29T05:41:34.029Z,6.60
2018-09-29T05:42:06.692Z,7.12
2018-09-29T05:42:39.281Z,5.75
2018-09-29T05:43:11.884Z,4.67
2018-09-29T05:43:44.485Z,4.25
2018-09-29T05:44:17.135Z,3.83
2018-09-29T05:44:49.732Z,3.10
2018-09-29T05:45:22.341Z,3.05
2018-09-29T05:45:54.942Z,2.65
2018-09-29T05:46:27.541Z,3.10
2018-09-29T05:47:00.168Z,1.90
2018-09-29T05:47:32.769Z,2.20
2018-09-29T05:48:05.393Z,2.60
2018-09-29T05:48:38.001Z,2.02
2018-09-29T05:49:10.656Z,2.15
2018-09-29T05:49:43.276Z,2.22
2018-09-29T05:50:15.877Z,2.17
2018-09-29T05:50:48.477Z,1.55
2018-09-29T05:51:21.093Z,2.20
2018-09-29T05:51:53.697Z,2.17
2018-09-29T05:52:26.296Z,1.80
2018-09-29T05:52:58.880Z,2.05
2018-09-29T05:53:31.539Z,1.90
2018-09-29T05:54:04.179Z,2.00
2018-09-29T05:54:36.760Z,2.00
2018-09-29T05:55:09.409Z,1.95
2018-09-29T05:55:42.014Z,2.45
2018-09-29T05:56:14.623Z,2.10
2018-09-29T05:56:47.224Z,1.75
2018-09-29T05:57:19.828Z,1.72
2018-09-29T05:57:52.522Z,1.90
2018-09-29T05:58:25.124Z,2.08
2018-09-29T05:58:57.729Z,2.02
2018-09-29T05:59:30.325Z,1.90
2018-09-29T06:00:03.081Z,1.85
2018-09-29T06:00:35.759Z,1.90
2018-09-29T06:01:08.961Z,1.75
2018-09-29T06:01:41.577Z,1.72
2018-09-29T06:02:14.178Z,1.55
2018-09-29T06:02:46.789Z,1.95
2018-09-29T06:03:19.413Z,1.80
2018-09-29T06:03:52.013Z,1.60
2018-09-29T06:04:24.696Z,1.90
2018-09-29T06:04:57.297Z,1.67
2018-09-29T06:05:29.923Z,2.08
2018-09-29T06:06:02.533Z,1.57
2018-09-29T06:06:35.143Z,1.95
2018-09-29T06:07:07.843Z,1.77
2018-09-29T06:07:40.385Z,2.37
2018-09-29T06:08:12.985Z,1.75
2018-09-29T06:08:45.605Z,1.90
2018-09-29T06:09:18.218Z,2.20
2018-09-29T06:09:50.818Z,1.77
2018-09-29T06:10:23.429Z,1.75
2018-09-29T06:10:56.045Z,1.85
2018-09-29T06:11:28.685Z,1.82
2018-09-29T06:12:01.296Z,1.98
2018-09-29T06:12:33.932Z,2.27
2018-09-29T06:13:06.598Z,1.65
2018-09-29T06:13:39.167Z,1.70
2018-09-29T06:14:11.753Z,1.57
2018-09-29T06:14:44.343Z,1.70
2018-09-29T06:15:16.924Z,2.10
2018-09-29T06:15:49.545Z,1.80
2018-09-29T06:16:22.492Z,1.70
2018-09-29T06:16:55.215Z,1.90
2018-09-29T06:17:28.455Z,1.90
2018-09-29T06:18:01.510Z,1.87
2018-09-29T06:18:34.132Z,1.67
2018-09-29T06:19:06.781Z,1.92
2018-09-29T06:19:39.397Z,1.52
2018-09-29T06:20:12.010Z,2.05
2018-09-29T06:20:44.609Z,1.80
2018-09-29T06:21:17.216Z,1.92
2018-09-29T06:21:49.797Z,2.15
2018-09-29T06:22:22.492Z,1.70
2018-09-29T06:22:55.100Z,2.05
2018-09-29T06:23:27.696Z,2.33
2018-09-29T06:24:00.300Z,1.90
2018-09-29T06:24:32.892Z,1.95
2018-09-29T06:25:05.543Z,1.95
2018-09-29T06:25:38.140Z,2.20
2018-09-29T06:26:10.732Z,2.12
2018-09-29T06:26:43.344Z,1.70
2018-09-29T06:27:15.939Z,1.67
2018-09-29T06:28:51.824Z,1.77
2018-09-29T06:29:24.425Z,1.37
2018-09-29T06:29:57.024Z,1.67
2018-09-29T06:30:29.625Z,1.62
2018-09-29T06:31:02.223Z,1.65
2018-09-29T06:31:34.867Z,2.10
2018-09-29T06:32:07.473Z,1.70
2018-09-29T06:32:40.073Z,2.08
2018-09-29T06:33:12.672Z,2.20
2018-09-29T06:33:45.293Z,2.00
2018-09-29T06:34:17.939Z,1.77
2018-09-29T06:34:50.547Z,2.08
2018-09-29T06:35:23.165Z,1.60
2018-09-29T06:35:55.804Z,2.42
2018-09-29T06:36:28.400Z,2.12
2018-09-29T06:37:01.014Z,2.10
2018-09-29T06:37:33.625Z,2.25
2018-09-29T06:38:06.237Z,2.15
2018-09-29T06:38:38.873Z,2.20
2018-09-29T06:39:11.888Z,1.70
2018-09-29T06:39:44.564Z,2.33
2018-09-29T06:40:17.242Z,2.25
2018-09-29T06:40:49.860Z,2.40
2018-09-29T06:41:22.472Z,1.80
2018-09-29T06:41:55.096Z,2.10
2018-09-29T06:42:27.706Z,1.85
2018-09-29T06:43:00.333Z,1.75
2018-09-29T06:43:32.997Z,1.87
2018-09-29T06:44:05.738Z,2.00
2018-09-29T06:44:38.324Z,1.62
2018-09-29T06:45:10.992Z,1.50
2018-09-29T06:45:43.608Z,2.22
2018-09-29T06:46:16.219Z,1.70
2018-09-29T06:46:48.822Z,2.67
2018-09-29T06:47:21.451Z,2.37
2018-09-29T06:47:54.126Z,1.72
2018-09-29T06:48:26.712Z,1.90
2018-09-29T06:48:59.345Z,1.87
2018-09-29T06:49:31.984Z,2.10
2018-09-29T06:50:04.693Z,1.80
2018-09-29T06:50:37.341Z,2.40
2018-09-29T06:51:09.941Z,1.77
2018-09-29T06:51:42.568Z,1.60
2018-09-29T06:52:15.182Z,1.70
2018-09-29T06:52:47.799Z,1.87
2018-09-29T06:53:20.405Z,2.25
2018-09-29T06:53:53.034Z,2.20
2018-09-29T06:54:25.666Z,2.00
2018-09-29T06:54:58.268Z,2.08
2018-09-29T06:55:30.901Z,1.65
2018-09-29T06:56:03.569Z,2.22
2018-09-29T06:56:36.186Z,1.98
2018-09-29T06:57:08.817Z,2.15
2018-09-29T06:57:41.473Z,2.65
2018-09-29T06:58:14.080Z,2.00
2018-09-29T06:58:46.678Z,2.05
2018-09-29T06:59:19.276Z,2.17
2018-09-29T06:59:51.892Z,1.60
2018-09-29T07:00:24.499Z,2.33
2018-09-29T07:00:57.112Z,2.20
2018-09-29T07:01:29.885Z,1.90
2018-09-29T07:02:02.513Z,2.10
2018-09-29T07:02:35.108Z,1.87
2018-09-29T07:03:07.775Z,1.80
2018-09-29T07:03:40.368Z,1.80
2018-09-29T07:04:13.017Z,1.60
2018-09-29T07:04:45.629Z,2.20
2018-09-29T07:05:18.251Z,2.15
2018-09-29T07:05:50.877Z,1.85
2018-09-29T07:06:23.501Z,1.82
2018-09-29T07:06:56.158Z,1.70
2018-09-29T07:07:28.757Z,2.60
2018-09-29T07:08:01.352Z,2.17
2018-09-29T07:08:33.952Z,2.30
2018-09-29T07:09:08.096Z,2.17
2018-09-29T07:09:40.689Z,1.90
2018-09-29T07:10:13.280Z,2.02
2018-09-29T07:10:45.876Z,1.90
2018-09-29T07:11:18.593Z,2.30
2018-09-29T07:11:51.217Z,2.52
2018-09-29T07:12:23.860Z,1.98
2018-09-29T07:12:56.477Z,2.17
2018-09-29T07:13:29.160Z,1.62
2018-09-29T07:14:01.768Z,1.87
2018-09-29T07:14:34.364Z,1.70
2018-09-29T07:15:07.499Z,1.82
2018-09-29T07:15:40.100Z,1.80
2018-09-29T07:16:12.745Z,2.00
2018-09-29T07:16:45.348Z,1.70
2018-09-29T07:17:17.933Z,2.27
2018-09-29T07:17:50.556Z,1.80
2018-09-29T07:18:23.192Z,1.92
2018-09-29T07:18:55.800Z,2.30
2018-09-29T07:19:28.405Z,2.17
2018-09-29T07:20:01.008Z,2.10
2018-09-29T07:20:33.634Z,1.92
2018-09-29T07:21:06.240Z,1.72
2018-09-29T07:21:38.913Z,2.52
2018-09-29T07:22:11.482Z,2.05
2018-09-29T07:22:44.077Z,2.22
2018-09-29T07:23:16.705Z,2.30
2018-09-29T07:23:49.309Z,1.62
2018-09-29T07:24:21.949Z,1.85
2018-09-29T07:24:54.536Z,1.75
2018-09-29T07:25:27.220Z,2.30
2018-09-29T07:25:59.765Z,1.72
2018-09-29T07:26:32.355Z,1.62
2018-09-29T07:27:05.101Z,2.55
2018-09-29T07:27:37.714Z,2.33
2018-09-29T07:28:10.336Z,2.62
2018-09-29T07:28:42.979Z,1.65
2018-09-29T07:29:15.575Z,2.50
2018-09-29T07:29:48.172Z,2.10
2018-09-29T07:30:20.824Z,2.15
2018-09-29T07:30:53.431Z,2.10
2018-09-29T07:31:26.103Z,2.75
2018-09-29T07:31:58.661Z,2.52
2018-09-29T07:32:31.248Z,1.90
2018-09-29T07:33:03.851Z,2.17
2018-09-29T07:33:36.454Z,2.10
2018-09-29T07:34:09.099Z,2.22
2018-09-29T07:34:41.709Z,2.20
2018-09-29T07:35:14.305Z,1.80
2018-09-29T07:35:46.891Z,1.95
2018-09-29T07:36:19.505Z,1.77
2018-09-29T07:36:52.289Z,2.00
2018-09-29T07:37:24.891Z,3.62
2018-09-29T07:37:57.501Z,2.12
2018-09-29T07:38:30.092Z,2.55
2018-09-29T07:39:04.228Z,2.45
2018-09-29T07:39:36.861Z,2.05
2018-09-29T07:40:09.482Z,4.90
2018-09-29T07:40:42.096Z,4.10
2018-09-29T07:41:14.963Z,2.83
2018-09-29T07:41:47.569Z,2.47
2018-09-29T07:42:20.164Z,3.08
2018-09-29T07:42:52.767Z,2.87
2018-09-29T07:43:25.348Z,2.47
2018-09-29T07:43:57.959Z,1.95
2018-09-29T07:44:31.670Z,2.10
2018-09-29T07:45:04.472Z,2.77
2018-09-29T07:45:37.076Z,2.05
2018-09-29T07:46:09.856Z,2.35
2018-09-29T07:46:42.452Z,2.25
2018-09-29T07:47:15.049Z,2.10
2018-09-29T07:47:47.640Z,2.47
2018-09-29T07:48:20.232Z,2.37
2018-09-29T07:48:52.829Z,2.20
2018-09-29T07:49:25.448Z,2.00
2018-09-29T07:49:58.056Z,1.90
2018-09-29T07:50:30.687Z,2.15
2018-09-29T07:51:03.284Z,1.92
2018-09-29T07:51:35.889Z,2.10
2018-09-29T07:52:08.472Z,2.58
2018-09-29T07:52:41.055Z,2.40
2018-09-29T07:53:13.651Z,1.95
2018-09-29T07:53:46.251Z,3.15
2018-09-29T07:54:18.844Z,2.42
2018-09-29T07:54:51.501Z,2.02
2018-09-29T07:55:24.056Z,2.30
2018-09-29T07:55:56.719Z,2.35
2018-09-29T07:56:29.317Z,1.85
2018-09-29T07:57:01.943Z,1.98
2018-09-29T07:57:34.540Z,2.10
2018-09-29T07:58:07.135Z,2.17
2018-09-29T07:58:39.749Z,1.98
2018-09-29T07:59:12.332Z,2.83
2018-09-29T07:59:44.920Z,2.30
2018-09-29T08:00:17.524Z,2.27
2018-09-29T08:00:50.131Z,2.10
2018-09-29T08:01:22.785Z,2.27
2018-09-29T08:01:55.508Z,2.85
2018-09-29T08:02:28.096Z,3.08
2018-09-29T08:03:00.720Z,2.17
2018-09-29T08:03:33.336Z,2.52
2018-09-29T08:04:05.960Z,2.15
2018-09-29T08:04:38.561Z,2.15
2018-09-29T08:05:11.150Z,2.58
2018-09-29T08:05:43.744Z,1.62
2018-09-29T08:06:16.401Z,2.00
2018-09-29T08:06:49.025Z,2.20
2018-09-29T08:07:21.606Z,2.52
2018-09-29T08:07:54.195Z,2.05
2018-09-29T08:08:26.836Z,2.02
2018-09-29T08:08:59.512Z,1.92
2018-09-29T08:09:32.108Z,2.10
2018-09-29T08:10:04.752Z,2.47
2018-09-29T08:10:37.388Z,2.02
2018-09-29T08:11:09.996Z,2.08
2018-09-29T08:11:42.596Z,2.85
2018-09-29T08:12:15.238Z,2.40
2018-09-29T08:12:47.849Z,2.20
2018-09-29T08:13:20.460Z,2.50
2018-09-29T08:13:53.057Z,3.10
2018-09-29T08:14:25.652Z,2.95
2018-09-29T08:14:58.257Z,2.70
2018-09-29T08:15:30.872Z,2.77
2018-09-29T08:16:03.476Z,2.33
2018-09-29T08:16:36.071Z,3.22
2018-09-29T08:17:08.681Z,2.33
2018-09-29T08:17:41.415Z,2.80
2018-09-29T08:18:14.012Z,2.67
2018-09-29T08:18:46.615Z,2.67
2018-09-29T08:19:19.212Z,2.47
2018-09-29T08:19:51.808Z,2.45
2018-09-29T08:20:24.412Z,2.65
2018-09-29T08:20:57.028Z,2.15
2018-09-29T08:21:29.668Z,2.62
2018-09-29T08:22:02.272Z,3.27
2018-09-29T08:22:34.867Z,4.67
2018-09-29T08:23:07.535Z,4.83
2018-09-29T08:23:40.132Z,5.53
2018-09-29T08:24:12.803Z,6.60
2018-09-29T08:24:45.368Z,5.05
2018-09-29T08:25:17.964Z,4.58
2018-09-29T08:25:50.577Z,3.58
2018-09-29T08:26:23.173Z,2.30
2018-09-29T08:26:55.777Z,3.15
2018-09-29T08:27:28.419Z,2.20
2018-09-29T08:28:01.069Z,3.20
2018-09-29T08:28:33.732Z,4.17
2018-09-29T08:29:06.396Z,3.10
2018-09-29T08:29:38.997Z,3.47
2018-09-29T08:30:11.589Z,3.83
2018-09-29T08:30:44.205Z,4.45
2018-09-29T08:31:16.820Z,3.92
2018-09-29T08:31:49.411Z,3.85
2018-09-29T08:32:22.063Z,4.12
2018-09-29T08:32:54.632Z,3.10
2018-09-29T08:33:27.240Z,2.80
2018-09-29T08:33:59.882Z,1.87
2018-09-29T08:34:32.496Z,1.52
2018-09-29T08:35:05.084Z,1.72
2018-09-29T08:35:37.661Z,2.27
2018-09-29T08:36:10.264Z,1.80
2018-09-29T08:36:42.868Z,1.62
2018-09-29T08:37:15.472Z,1.72
2018-09-29T08:37:48.090Z,1.77
2018-09-29T08:38:20.697Z,1.55
2018-09-29T08:38:53.305Z,2.20
2018-09-29T08:39:25.973Z,1.90
2018-09-29T08:39:58.589Z,2.30
2018-09-29T08:40:31.188Z,2.20
2018-09-29T08:41:03.801Z,2.67
2018-09-29T08:41:36.432Z,1.60
2018-09-29T08:42:09.017Z,2.15
2018-09-29T08:42:41.668Z,1.90
2018-09-29T08:43:14.271Z,2.05
2018-09-29T08:43:46.859Z,1.60
2018-09-29T08:44:19.469Z,1.70
2018-09-29T08:44:52.102Z,2.20
2018-09-29T08:45:24.700Z,2.10
2018-09-29T08:45:57.292Z,1.80
2018-09-29T08:46:29.898Z,2.22
2018-09-29T08:47:02.493Z,1.57
2018-09-29T08:47:35.097Z,1.70
2018-09-29T08:48:07.705Z,2.75
2018-09-29T08:48:40.312Z,1.60
2018-09-29T08:49:12.915Z,1.60
2018-09-29T08:49:45.521Z,1.70
2018-09-29T08:50:18.206Z,2.08
2018-09-29T08:50:50.787Z,2.00
2018-09-29T08:51:23.372Z,1.55
2018-09-29T08:51:55.986Z,1.90
2018-09-29T08:52:28.603Z,2.08
2018-09-29T08:53:01.229Z,1.60
2018-09-29T08:53:33.869Z,2.12
2018-09-29T08:54:06.484Z,1.75
2018-09-29T08:54:39.092Z,1.72
2018-09-29T08:55:11.719Z,1.87
2018-09-29T08:55:44.344Z,1.52
2018-09-29T08:56:16.958Z,2.02
2018-09-29T08:56:49.583Z,1.77
2018-09-29T08:57:22.196Z,1.62
2018-09-29T08:57:54.812Z,1.42
2018-09-29T08:58:27.424Z,1.80
2018-09-29T08:59:00.017Z,2.12
2018-09-29T08:59:32.671Z,2.22
2018-09-29T09:00:05.401Z,1.65
2018-09-29T09:00:38.048Z,1.70
2018-09-29T09:01:10.683Z,1.67
2018-09-29T09:01:43.294Z,2.00
2018-09-29T09:02:15.997Z,2.00
2018-09-29T09:02:48.594Z,1.67
2018-09-29T09:03:21.188Z,1.60
2018-09-29T09:03:53.832Z,1.45
2018-09-29T09:04:26.406Z,1.95
2018-09-29T09:04:58.992Z,1.60
2018-09-29T09:05:31.575Z,1.60
2018-09-29T09:06:04.204Z,1.62
2018-09-29T09:06:36.871Z,2.40
2018-09-29T09:07:09.460Z,1.87
2018-09-29T09:07:42.061Z,2.10
2018-09-29T09:08:14.648Z,2.20
2018-09-29T09:08:47.296Z,1.57
2018-09-29T09:09:19.916Z,1.90
2018-09-29T09:09:52.509Z,1.60
2018-09-29T09:10:25.129Z,1.60
2018-09-29T09:10:57.721Z,1.50
2018-09-29T09:11:30.333Z,1.60
2018-09-29T09:12:02.957Z,1.52
2018-09-29T09:12:35.545Z,1.25
2018-09-29T09:13:08.146Z,1.20
2018-09-29T09:13:40.746Z,1.72
2018-09-29T09:14:13.333Z,1.65
2018-09-29T09:14:45.929Z,1.87
2018-09-29T09:15:18.549Z,1.30
2018-09-29T09:15:51.164Z,1.42
2018-09-29T09:16:23.756Z,1.55
2018-09-29T09:16:56.416Z,1.82
2018-09-29T09:17:29.016Z,2.33
2018-09-29T09:18:01.628Z,2.15
2018-09-29T09:18:34.213Z,2.30
2018-09-29T09:19:06.820Z,1.50
2018-09-29T09:19:39.410Z,1.45
2018-09-29T09:20:12.005Z,1.60
2018-09-29T09:20:44.612Z,2.20
2018-09-29T09:21:17.259Z,1.60
2018-09-29T09:21:49.851Z,1.50
2018-09-29T09:22:22.451Z,1.50
2018-09-29T09:22:55.077Z,1.25
2018-09-29T09:23:27.730Z,1.70
2018-09-29T09:24:00.349Z,1.90
2018-09-29T09:24:32.948Z,1.40
2018-09-29T09:25:05.868Z,1.70
2018-09-29T09:25:38.468Z,1.55
2018-09-29T09:26:11.077Z,1.72
2018-09-29T09:26:43.665Z,1.37
2018-09-29T09:27:16.272Z,1.80
2018-09-29T09:27:48.873Z,1.57
2018-09-29T09:28:21.488Z,1.32
2018-09-29T09:28:54.109Z,1.50
2018-09-29T09:29:26.764Z,1.67
2018-09-29T09:29:59.425Z,1.62
2018-09-29T09:30:31.991Z,1.70
2018-09-29T09:31:04.629Z,1.35
2018-09-29T09:31:37.280Z,1.82
2018-09-29T09:32:09.919Z,1.55
2018-09-29T09:32:42.532Z,2.00
2018-09-29T09:33:15.116Z,1.40
2018-09-29T09:33:47.759Z,1.77
2018-09-29T09:34:20.344Z,1.72
2018-09-29T09:34:52.945Z,1.65
2018-09-29T09:35:25.539Z,1.80
2018-09-29T09:35:58.152Z,1.90
2018-09-29T09:36:30.740Z,1.50
2018-09-29T09:37:03.351Z,1.80
2018-09-29T09:37:35.948Z,1.65
2018-09-29T09:38:08.548Z,1.60
2018-09-29T09:38:41.136Z,1.75
2018-09-29T09:39:13.785Z,1.47
2018-09-29T09:39:46.384Z,1.40
2018-09-29T09:40:21.259Z,2.10
2018-09-29T09:40:53.864Z,1.80
2018-09-29T09:41:26.499Z,1.65
2018-09-29T09:41:59.266Z,2.10
2018-09-29T09:42:31.881Z,1.67
2018-09-29T09:43:04.520Z,1.70
2018-09-29T09:43:37.214Z,1.70
2018-09-29T09:44:09.733Z,1.55
2018-09-29T09:44:42.392Z,1.92
2018-09-29T09:45:14.980Z,1.37
2018-09-29T09:45:48.269Z,1.52
2018-09-29T09:46:20.898Z,1.60
2018-09-29T09:46:53.496Z,1.87
2018-09-29T09:47:26.108Z,1.47
2018-09-29T09:47:58.688Z,1.90
2018-09-29T09:48:31.304Z,2.10
2018-09-29T09:49:03.916Z,1.50
2018-09-29T09:49:36.627Z,1.70
2018-09-29T09:50:09.172Z,1.50
2018-09-29T09:50:41.762Z,1.60
2018-09-29T09:51:14.364Z,1.30
2018-09-29T09:51:46.980Z,1.62
2018-09-29T09:52:19.572Z,1.70
2018-09-29T09:52:52.176Z,1.82
2018-09-29T09:53:24.767Z,2.20
2018-09-29T09:53:57.415Z,1.65
2018-09-29T09:54:30.013Z,1.50
2018-09-29T09:55:02.620Z,1.85
2018-09-29T09:55:35.276Z,1.55
2018-09-29T09:56:08.021Z,1.72
2018-09-29T09:56:40.520Z,1.22
2018-09-29T09:57:13.133Z,1.35
2018-09-29T09:57:45.736Z,1.35
2018-09-29T09:58:18.376Z,1.50
2018-09-29T09:58:50.984Z,1.80
2018-09-29T09:59:23.572Z,1.30
2018-09-29T09:59:56.288Z,1.70
2018-09-29T10:00:34.533Z,1.40
2018-09-29T10:01:12.893Z,1.47
2018-09-29T10:01:51.177Z,1.55
2018-09-29T10:02:29.601Z,1.50
2018-09-29T10:03:07.820Z,1.32
2018-09-29T10:03:47.257Z,1.65
2018-09-29T10:04:19.850Z,1.20
2018-09-29T10:04:52.469Z,1.98
2018-09-29T10:05:25.090Z,1.55
2018-09-29T10:05:57.747Z,1.45
2018-09-29T10:06:30.498Z,1.62
2018-09-29T10:07:05.836Z,1.87
2018-09-29T10:07:38.441Z,1.50
2018-09-29T10:08:11.040Z,1.15
2018-09-29T10:08:43.744Z,1.90
2018-09-29T10:09:16.360Z,1.45
2018-09-29T10:09:48.954Z,1.50
2018-09-29T10:10:21.564Z,2.10
2018-09-29T10:10:54.161Z,1.15
2018-09-29T10:11:26.808Z,1.40
2018-09-29T10:11:59.410Z,1.70
2018-09-29T10:12:32.354Z,1.40
2018-09-29T10:13:05.025Z,1.60
2018-09-29T10:13:37.727Z,1.50
2018-09-29T10:14:10.348Z,1.65
2018-09-29T10:14:42.945Z,1.20
2018-09-29T10:15:15.548Z,1.85
2018-09-29T10:15:48.748Z,2.00
2018-09-29T10:16:21.332Z,1.60
2018-09-29T10:16:53.977Z,1.50
2018-09-29T10:17:26.666Z,1.60
2018-09-29T10:17:59.215Z,1.30
2018-09-29T10:18:31.821Z,1.17
2018-09-29T10:19:05.110Z,1.50
2018-09-29T10:19:37.741Z,1.95
2018-09-29T10:20:10.362Z,1.42
2018-09-29T10:20:42.997Z,1.70
2018-09-29T10:21:15.602Z,1.40
2018-09-29T10:21:48.199Z,1.90
2018-09-29T10:22:21.132Z,2.00
2018-09-29T10:22:53.732Z,1.22
2018-09-29T10:23:26.374Z,1.82
2018-09-29T10:23:59.116Z,1.50
2018-09-29T10:24:31.752Z,1.40
2018-09-29T10:25:04.467Z,1.10
2018-09-29T10:25:37.049Z,2.27
2018-09-29T10:26:09.651Z,1.42
2018-09-29T10:26:42.257Z,1.62
2018-09-29T10:27:14.881Z,1.35
2018-09-29T10:27:47.597Z,1.60
2018-09-29T10:28:20.120Z,1.70
2018-09-29T10:28:52.725Z,1.30
2018-09-29T10:29:25.336Z,1.52
2018-09-29T10:29:57.951Z,1.80
2018-09-29T10:30:30.541Z,2.10
2018-09-29T10:31:03.192Z,1.72
2018-09-29T10:31:35.788Z,1.40
2018-09-29T10:32:08.384Z,1.80
2018-09-29T10:32:40.985Z,1.52
2018-09-29T10:33:13.629Z,1.60
2018-09-29T10:33:46.252Z,1.62
2018-09-29T10:34:18.886Z,2.27
2018-09-29T10:34:51.633Z,1.80
2018-09-29T10:35:29.687Z,1.40
2018-09-29T10:36:02.369Z,1.67
2018-09-29T10:36:35.006Z,1.70
2018-09-29T10:37:08.033Z,1.52
2018-09-29T10:37:40.660Z,1.37
2018-09-29T10:38:13.315Z,1.40
2018-09-29T10:38:45.927Z,1.60
2018-09-29T10:39:18.528Z,1.30
2018-09-29T10:39:51.132Z,1.52
2018-09-29T10:40:23.753Z,1.65
2018-09-29T10:40:56.364Z,1.35
2018-09-29T10:41:29.056Z,1.45
2018-09-29T10:42:01.655Z,1.35
2018-09-29T10:42:34.262Z,1.52
2018-09-29T10:43:06.881Z,1.12
2018-09-29T10:43:39.530Z,1.50
2018-09-29T10:44:12.351Z,1.60
2018-09-29T10:44:44.945Z,1.45
2018-09-29T10:45:17.553Z,1.25
2018-09-29T10:45:50.172Z,1.40
2018-09-29T10:46:22.784Z,1.55
2018-09-29T10:46:55.420Z,1.87
2018-09-29T10:47:28.037Z,1.35
2018-09-29T10:48:00.705Z,1.40
2018-09-29T10:48:33.314Z,1.40
2018-09-29T10:49:05.974Z,1.67
2018-09-29T10:49:38.561Z,1.70
2018-09-29T10:50:17.901Z,1.47
2018-09-29T10:50:50.513Z,1.67
2018-09-29T10:51:23.131Z,1.72
2018-09-29T10:51:55.723Z,1.10
2018-09-29T10:52:28.330Z,1.40
2018-09-29T10:53:00.984Z,1.57
2018-09-29T10:53:33.520Z,1.92
2018-09-29T10:54:06.149Z,1.30
2018-09-29T10:54:38.837Z,2.27
2018-09-29T10:55:11.453Z,1.67
2018-09-29T10:55:44.054Z,1.35
2018-09-29T10:56:23.315Z,1.25
2018-09-29T10:56:55.924Z,2.25
2018-09-29T10:57:28.549Z,1.70
2018-09-29T10:58:01.197Z,1.60
2018-09-29T10:58:33.785Z,1.32
2018-09-29T10:59:06.499Z,1.30
2018-09-29T10:59:39.036Z,1.95
2018-09-29T11:00:11.644Z,1.65
2018-09-29T11:00:44.262Z,1.80
2018-09-29T11:01:16.873Z,2.10
2018-09-29T11:01:49.476Z,1.45
2018-09-29T11:02:22.101Z,1.70
2018-09-29T11:02:54.803Z,1.77
2018-09-29T11:03:27.393Z,1.30
2018-09-29T11:03:59.986Z,1.40
2018-09-29T11:04:32.610Z,1.60
2018-09-29T11:05:05.345Z,1.55
2018-09-29T11:05:37.988Z,1.47
2018-09-29T11:06:10.590Z,1.50
2018-09-29T11:06:43.189Z,1.72
2018-09-29T11:07:15.843Z,1.52
2018-09-29T11:07:48.437Z,1.98
2018-09-29T11:08:21.035Z,1.60
2018-09-29T11:08:53.637Z,1.50
2018-09-29T11:09:26.257Z,1.42
2018-09-29T11:09:58.884Z,1.50
2018-09-29T11:10:31.587Z,1.98
2018-09-29T11:11:04.208Z,1.85
2018-09-29T11:11:36.828Z,1.40
2018-09-29T11:12:09.435Z,1.35
2018-09-29T11:12:42.035Z,1.40
2018-09-29T11:13:14.635Z,1.40
2018-09-29T11:13:47.231Z,1.27
2018-09-29T11:14:19.864Z,1.70
2018-09-29T11:14:52.453Z,1.32
2018-09-29T11:15:25.136Z,1.50
2018-09-29T11:15:57.752Z,0.90
2018-09-29T11:16:30.350Z,1.50
2018-09-29T11:17:02.996Z,1.67
2018-09-29T11:17:35.619Z,1.45
2018-09-29T11:18:08.224Z,1.35
2018-09-29T11:18:40.821Z,1.50
2018-09-29T11:19:13.432Z,1.70
2018-09-29T11:19:46.032Z,1.42
2018-09-29T11:20:18.620Z,1.45
2018-09-29T11:20:51.331Z,1.50
2018-09-29T11:21:23.935Z,1.70
2018-09-29T11:21:56.533Z,1.95
2018-09-29T11:22:29.120Z,1.40
2018-09-29T11:23:01.728Z,1.35
2018-09-29T11:23:34.357Z,1.77
2018-09-29T11:24:06.956Z,1.20
2018-09-29T11:24:39.557Z,1.30
2018-09-29T11:25:12.172Z,1.60
2018-09-29T11:25:44.785Z,1.45
2018-09-29T11:26:17.420Z,2.00
2018-09-29T11:26:50.090Z,2.25
2018-09-29T11:27:22.716Z,1.42
2018-09-29T11:27:55.365Z,1.60
2018-09-29T11:28:27.936Z,1.52
2018-09-29T11:29:00.550Z,1.17
2018-09-29T11:29:33.225Z,1.37
2018-09-29T11:30:06.316Z,1.72
2018-09-29T11:30:38.912Z,1.52
2018-09-29T11:31:11.508Z,1.50
2018-09-29T11:31:44.128Z,1.40
2018-09-29T11:32:16.725Z,1.87
2018-09-29T11:32:49.328Z,1.30
2018-09-29T11:33:21.918Z,1.85
2018-09-29T11:33:54.530Z,1.65
2018-09-29T11:34:27.119Z,1.20
2018-09-29T11:34:59.721Z,2.30
2018-09-29T11:35:32.323Z,1.55
2018-09-29T11:36:04.916Z,1.30
2018-09-29T11:36:37.516Z,1.20
2018-09-29T11:37:10.142Z,1.47
2018-09-29T11:37:42.727Z,1.05
2018-09-29T11:38:15.309Z,1.77
2018-09-29T11:38:47.908Z,1.32
2018-09-29T11:39:20.614Z,1.40
2018-09-29T11:39:53.131Z,1.05
2018-09-29T11:40:31.067Z,1.70
2018-09-29T11:41:03.741Z,1.25
2018-09-29T11:41:36.632Z,1.30
2018-09-29T11:42:09.240Z,1.42
2018-09-29T11:42:41.875Z,1.45
2018-09-29T11:43:14.484Z,1.50
2018-09-29T11:43:47.593Z,1.20
2018-09-29T11:44:20.185Z,1.40
2018-09-29T11:44:52.788Z,1.45
2018-09-29T11:45:25.396Z,1.47
2018-09-29T11:45:57.995Z,1.30
2018-09-29T11:46:37.369Z,1.60
2018-09-29T11:47:10.028Z,1.32
2018-09-29T11:47:42.618Z,1.82
2018-09-29T11:48:15.229Z,1.12
2018-09-29T11:48:47.824Z,1.70
2018-09-29T11:49:20.441Z,1.30
2018-09-29T11:49:53.049Z,1.60
2018-09-29T11:50:25.647Z,2.12
2018-09-29T11:50:58.253Z,1.72
2018-09-29T11:51:30.844Z,1.60
2018-09-29T11:52:03.465Z,1.57
2018-09-29T11:52:36.086Z,1.62
2018-09-29T11:53:08.697Z,1.80
2018-09-29T11:53:41.296Z,1.22
2018-09-29T11:54:13.892Z,1.40
2018-09-29T11:54:46.516Z,1.20
2018-09-29T11:55:19.129Z,1.35
2018-09-29T11:55:51.732Z,1.20
2018-09-29T11:56:24.360Z,1.50
2018-09-29T11:56:56.965Z,1.20
2018-09-29T11:57:30.079Z,1.30
2018-09-29T11:58:02.724Z,1.57
2018-09-29T11:58:35.332Z,1.10
2018-09-29T11:59:07.960Z,1.45
2018-09-29T11:59:40.564Z,1.37
2018-09-29T12:00:13.228Z,1.45
2018-09-29T12:00:45.883Z,1.30
2018-09-29T12:01:18.544Z,1.77
2018-09-29T12:01:51.185Z,1.37
2018-09-29T12:02:23.743Z,1.40
2018-09-29T12:02:56.445Z,1.50
2018-09-29T12:03:29.085Z,1.30
2018-09-29T12:04:01.668Z,1.40
2018-09-29T12:04:34.261Z,1.10
2018-09-29T12:05:06.924Z,1.20
2018-09-29T12:05:39.529Z,1.32
2018-09-29T12:06:12.151Z,1.30
2018-09-29T12:06:44.758Z,1.62
2018-09-29T12:07:17.408Z,1.37
2018-09-29T12:07:50.004Z,1.35
2018-09-29T12:08:22.617Z,1.15
2018-09-29T12:08:55.237Z,1.30
2018-09-29T12:09:27.831Z,1.60
2018-09-29T12:10:00.444Z,1.30
2018-09-29T12:10:33.037Z,1.20
2018-09-29T12:11:05.693Z,1.45
2018-09-29T12:11:38.322Z,1.90
2018-09-29T12:12:10.912Z,1.57
2018-09-29T12:12:43.521Z,1.50
2018-09-29T12:13:16.116Z,1.02
2018-09-29T12:13:48.744Z,1.20
2018-09-29T12:14:21.380Z,1.45
2018-09-29T12:14:53.996Z,1.67
2018-09-29T12:15:26.598Z,1.52
2018-09-29T12:15:59.219Z,1.10
2018-09-29T12:16:31.810Z,1.50
2018-09-29T12:17:04.416Z,1.45